x

9410230 - La Jolla, Ca (ljac1) Weather Station

6:30 - Mon 26th Jan 2015 All times are PST. -8 hours from GMT.

  • Wind
    6mph, 8mph gusts
  • Sea Temp 62°f
  • Air Temp 62°f
  • Sea Pressure 1017.7mb
  • 9410230 - La Jolla, Ca
  • 9410230 - La Jolla, Ca

More Historic Weather Station data

Upgrade to MSW Pro to gain access to the past 30 days of data for over 8000 Wavebouys and Weather Stations around the globe.

Join Pro

Comparision Forecast

View Surf forecast
   
lun. 01/26 6:30 6 8 mph 1017.7mb 62f 62f
6:24 8 9 mph 1017.6mb 62f 62f
6:18 8 9 mph 1017.5mb 62f 62f
6:12 1 3 mph 1017.6mb 62f 60f
6:06 3 5 mph 1017.6mb 62f 60f
6:00 1 2 mph 1017.6mb 62f 61f
5:54 1 2 mph 1017.6mb 62f 61f
5:48  -  mph 1017.5mb 62f 61f
5:42  -  mph 1017.5mb 62f 61f
5:36  -  mph 1017.4mb 62f 61f
5:30 2 8 mph 1017.4mb 62f 61f
5:24 6 9 mph 1017.3mb 62f 61f
5:18 7 11 mph 1017.3mb 62f 62f
5:12 8 13 mph 1017.2mb 62f 62f
5:06 11 13 mph 1017.1mb 62f 62f
5:00 9 11 mph 1017.1mb 62f 62f
4:54 10 13 mph 1017.2mb 62f 62f
4:48 11 14 mph 1017.2mb 62f 62f
4:42 11 14 mph 1017.1mb 62f 62f
4:36 6 11 mph 1017.2mb 62f 62f
4:30 6 8 mph 1017.3mb 62f 63f
4:24 6 9 mph 1017.2mb 62f 63f
4:18 7 9 mph 1017.2mb 62f 63f
4:12 7 9 mph 1017.2mb 62f 63f
4:06 5 7 mph 1017.1mb 62f 63f
4:00 5 7 mph 1017mb 62f 63f
3:54 2 7 mph 1017mb 62f 64f
3:48 3 6 mph 1017mb 62f 64f
3:42 3 5 mph 1016.9mb 62f 64f
3:36 5 8 mph 1016.7mb 62f 64f
3:30 6 10 mph 1016.7mb 62f 64f
3:24 7 10 mph 1016.8mb 62f 64f
3:18 6 8 mph 1016.7mb 62f 64f
3:12 7 10 mph 1016.9mb 62f 64f
3:06 6 9 mph 1017.1mb 62f 63f
3:00 8 10 mph 1017.2mb 62f 63f
2:54 7 9 mph 1017.2mb 62f 63f
2:48 7 11 mph 1017.1mb 62f 63f
2:42 8 13 mph 1017.1mb 62f 62f
2:36 8 13 mph 1017.2mb 62f 62f
2:30 9 14 mph 1017.2mb 62f 62f
2:24 11 15 mph 1017.2mb 62f 62f
2:18 10 14 mph 1017.2mb 62f 62f
2:12 9 13 mph 1017.3mb 62f 62f
2:06 10 14 mph 1017.2mb 62f 62f
2:00 8 16 mph 1016.9mb 62f 63f
1:54 8 11 mph 1016.9mb 62f 63f
1:48 6 11 mph 1016.7mb 62f 64f
1:42 11 20 mph 1016.9mb 62f 64f
1:36 14 20 mph 1016.9mb 62f 64f
1:30 17 21 mph 1016.9mb 62f 64f
1:24 17 22 mph 1016.8mb 62f 65f
1:18 16 24 mph 1016.7mb 62f 65f
1:12 15 24 mph 1016.6mb 62f 65f
1:06 21 30 mph 1016.5mb 62f 66f
1:00 22 30 mph 1016.5mb 62f 66f
12:54 23 29 mph 1016.4mb 62f 66f
12:48 22 29 mph 1016.4mb 62f 66f
12:42 22 30 mph 1016.5mb 62f 66f
12:36 22 28 mph 1016.6mb 62f 67f
12:30 21 30 mph 1016.5mb 62f 67f
12:24 17 24 mph 1016.5mb 62f 67f
12:18 21 28 mph 1016.6mb 62f 67f
12:12 17 24 mph 1016.7mb 62f 69f
12:06 3 6 mph 1016.6mb 62f 66f
12:00  -  2 mph 1016.3mb 62f 69f
11:54  -  1 mph 1016.3mb 62f 69f
11:48  -  1 mph 1016.3mb 62f 70f
11:42  -  mph 1016.2mb 62f 70f
11:36  -  3 mph 1016.3mb 62f 69f
11:30  -  2 mph 1016.4mb 62f 69f
11:24 2 3 mph 1016.4mb 62f 68f
11:18 2
mph
1016.3mb 62f 69f
11:12 1 2 mph 1016.5mb 62f 69f
11:06  -  2 mph 1016.5mb 62f 69f
11:00 1
mph
1016.6mb 62f 68f
10:54  -  3 mph 1016.5mb 62f 68f
10:48 2 3 mph 1016.6mb 62f 68f
10:42 2 3 mph 1016.6mb 62f 67f
10:36 2 3 mph 1016.6mb 62f 67f
10:30 2 5 mph 1016.5mb 62f 67f
10:24 5 6 mph 1016.5mb 62f 67f
10:18  -  2 mph 1016.4mb 62f 69f
10:12  -  2 mph 1016.4mb 62f 69f
10:06  -  2 mph 1016.6mb 62f 69f
10:00 1 2 mph 1016.6mb 62f 69f
9:54 2 3 mph 1016.6mb 62f 69f
9:48 2 5 mph 1016.6mb 62f 69f
9:42  -  2 mph 1016.5mb 62f 69f
9:36 2 5 mph 1016.5mb 62f 68f
9:30 3 5 mph 1016.5mb 62f 68f
9:24 2 7 mph 1016.3mb 62f 67f
9:18 6 7 mph 1016.2mb 62f 67f
9:12 5 8 mph 1016.2mb 62f 67f
9:06 7 9 mph 1016.1mb 62f 68f
9:00 8 10 mph 1016.1mb 62f 68f
8:54 5 8 mph 1016mb 62f 69f
8:48 7 8 mph 1016mb 62f 69f
8:42 8 10 mph 1015.9mb 62f 69f
8:36 6 8 mph 1016mb 62f 68f
8:30 3 7 mph 1015.9mb 62f 68f
8:24 3 5 mph 1015.9mb 62f 68f
8:18 5
mph
1015.9mb 62f 67f
8:12 3 5 mph 1015.7mb 62f 66f
8:06 1 3 mph 1015.5mb 62f 67f
8:00 3 6 mph 1015.5mb 62f 66f
7:54 3 5 mph 1015.4mb 62f 68f
7:48 2 6 mph 1015.4mb 62f 69f
7:42 6 7 mph 1015.4mb 62f 69f
7:36 3 6 mph 1015.4mb 62f 68f
7:30 1 6 mph 1015.4mb 62f 69f
7:24 6 8 mph 1015.4mb 62f 70f
7:18 7 9 mph 1015.4mb 62f 70f
7:12 9
mph
1015.4mb 62f 69f
7:06 2 5 mph 1015.5mb 62f 68f
7:00 2 5 mph 1015.4mb 62f 69f
6:54 5 7 mph 1015.5mb 62f 68f
6:48 3
mph
1015.6mb 62f 67f
6:42 2 6 mph 1015.6mb 62f 69f
6:36 6 10 mph 1015.4mb 62f 70f
6:30 5 7 mph 1015.5mb 62f 68f
6:24 6 8 mph 1015.4mb 62f 68f
6:18 8 9 mph 1015.4mb 62f 68f
6:12 5
mph
1015.2mb 62f 68f
6:06 3 5 mph 1015mb 62f 68f
6:00 2 5 mph 1014.8mb 62f 68f
5:54 2 6 mph 1014.6mb 62f 68f
5:48 1 3 mph 1014.5mb 62f 68f
5:42 2 3 mph 1014.4mb 62f 67f
5:36 2 3 mph 1014.3mb 62f 70f
5:30 3 5 mph 1014.4mb 62f 69f
5:24 1 3 mph 1014.3mb 62f 70f
5:18 3 5 mph 1014.2mb 62f 69f
5:12 5 10 mph 1014.3mb 62f 68f
5:06 8 10 mph 1014.5mb 62f 67f
5:00 3 7 mph 1014.2mb 62f 67f
4:54  -  2 mph 1014.1mb 62f 68f
4:48  -  2 mph 1013.8mb 62f 68f
4:42 2 7 mph 1013.9mb 62f 67f
4:36 6 7 mph 1014.1mb 62f 67f
4:30 5 7 mph 1014.2mb 62f 70f
4:24 6 7 mph 1014.3mb 62f 69f
4:18 5
mph
1014.6mb 62f 68f
4:12 2 6 mph 1014.7mb 62f 66f
4:06 5 6 mph 1014.8mb 62f 65f
4:00 6
mph
1014.6mb 62f 65f
3:54 2 6 mph 1014.6mb 62f 66f
3:48 6
mph
1014.5mb 62f 67f
3:42 5 6 mph 1014.6mb 62f 66f
3:36 5 6 mph 1014.8mb 62f 67f
3:30 2 3 mph 1014.8mb 62f 67f
3:24 2
mph
1014.7mb 62f 68f
3:18 2 3 mph 1014.9mb 62f 68f
3:12 1 3 mph 1015mb 62f 68f
3:06 3 5 mph 1015mb 62f 67f
3:00 3 5 mph 1015.1mb 62f 66f
2:54 6
mph
1015mb 62f 66f
2:48 3 6 mph 1015mb 62f 67f
2:42 7 8 mph 1015mb 62f 67f
2:36 6 7 mph 1015.1mb 62f 68f
2:30 2 5 mph 1015.2mb 62f 69f
2:24 3
mph
1015.3mb 62f 68f
2:18 2 5 mph 1015.4mb 62f 66f
2:12 3
mph
1015.4mb 62f 65f
2:06  -  3 mph 1015.4mb 62f 65f
2:00 2 3 mph 1015.4mb 62f 65f
1:54 3 5 mph 1015.5mb 62f 65f
1:48 5 6 mph 1015.6mb 62f 65f
1:42 3
mph
1015.6mb 62f 65f
1:36  -  3 mph 1015.6mb 62f 65f
1:30 3
mph
1015.6mb 62f 66f
1:24 3 6 mph 1015.7mb 62f 65f
1:18 6
mph
1015.6mb 62f 64f
1:12 5 6 mph 1015.6mb 62f 64f
1:06 5 6 mph 1015.7mb 62f 67f
1:00 2
mph
1015.6mb 62f 68f
12:54  -  5 mph 1015.5mb 62f 68f
12:48 2 3 mph 1015.6mb 62f 68f
12:42  -  2 mph 1015.8mb 62f 67f
12:36  -  5 mph 1015.8mb 62f 67f
12:30 5 6 mph 1016.1mb 62f 67f
12:24 3 5 mph 1016.3mb 62f 67f
12:18 3 5 mph 1016.3mb 62f 67f
12:12 3 7 mph 1016.4mb 62f 66f
12:06 5 7 mph 1016.5mb 62f 67f
12:00 1 3 mph 1016.4mb 62f 67f
dim. 01/25 11:54 3 7 mph 1016.5mb 62f 67f
11:48 5 8 mph 1016.6mb 62f 66f
11:42 5 6 mph 1016.6mb 62f 66f
11:36 3 7 mph 1016.4mb 62f 68f
11:30 5 6 mph 1016.6mb 62f 66f
11:24 1 6 mph 1016.6mb 62f 65f
11:18 5 6 mph 1016.6mb 62f 67f
11:12 3 6 mph 1016.7mb 62f 69f
11:06 6 7 mph 1016.5mb 62f 70f
11:00 5 6 mph 1016.7mb 62f 69f
10:54 1 2 mph 1016.7mb 62f 68f
10:48 1 2 mph 1016.6mb - 68f
10:42 2 3 mph 1016.6mb - 68f
10:36 3 5 mph 1016.5mb - 69f
10:30 3 5 mph 1016.5mb 62f 69f
10:24 2 5 mph 1016.4mb 62f 68f
10:18 3
mph
1016.3mb 62f 68f
10:12 2 3 mph 1016.3mb 62f 70f
10:06 1 2 mph 1016.3mb 62f 70f
10:00 1 3 mph 1016.1mb 62f 70f
9:54 2 3 mph 1016.1mb 62f 69f
9:48 3 6 mph 1016mb 62f 69f
9:42 3 6 mph 1015.9mb 62f 72f
9:36 6 7 mph 1015.8mb 62f 72f
9:30 6 7 mph 1015.9mb 62f 70f
9:24 5 6 mph 1016.1mb 62f 69f
9:18 2 3 mph 1016.2mb 62f 67f
9:12  -  6 mph 1016.3mb 62f 67f
9:06 5 7 mph 1016.3mb 62f 68f
9:00 6 8 mph 1016.2mb 62f 71f
8:54 5 6 mph 1016.2mb 62f 70f
8:48 5 6 mph 1016.3mb 62f 69f
8:42 3 5 mph 1016.4mb 62f 68f
8:36 2 3 mph 1016.3mb 62f 69f
8:30 2 6 mph 1016.4mb 62f 71f
8:24 3 6 mph 1016.4mb 62f 71f
8:18 3 5 mph 1016.5mb 62f 70f
8:12 3 6 mph 1016.5mb 62f 70f
8:06 2 3 mph 1016.4mb 62f 70f
8:00 3
mph
1016.5mb 62f 71f
7:54 3 6 mph 1016.5mb 62f 69f
7:48 3 5 mph 1016.5mb 62f 69f
7:42 2 3 mph 1016.4mb 62f 69f
7:36 2 6 mph 1016.4mb 62f 69f
7:30 3 6 mph 1016.5mb 62f 69f
7:24 2 5 mph 1016.5mb 62f 69f
7:18 2 3 mph 1016.5mb 62f 70f
7:12 2 5 mph 1016.4mb 62f 71f
7:06 2 3 mph 1016.3mb 62f 71f
7:00 2 3 mph 1016.3mb 62f 70f
6:54 3 6 mph 1016.1mb 62f 70f
6:48 6
mph
1016.2mb 62f 70f
6:42 1 3 mph 1016.1mb 62f 70f
6:36 3 5 mph 1015.9mb 62f 71f
6:30 2 3 mph 1015.9mb 62f 71f
6:24 5 6 mph 1016mb 62f 70f
6:18 5 6 mph 1016mb 62f 68f
6:12 2 5 mph 1016mb 62f 68f
6:06 3 5 mph 1015.9mb 62f 68f
6:00 3 5 mph 1015.8mb 62f 69f
5:54  -  1 mph 1015.9mb 62f 68f
5:48  -  1 mph 1015.7mb 62f 68f
5:42  -  1 mph 1015.6mb 62f 69f
5:36 2 3 mph 1015.5mb 62f 68f
5:30 3
mph
1015.5mb 62f 67f
5:24  -  3 mph 1015.5mb 62f 67f
5:18 2 3 mph 1015.3mb 62f 67f
5:12 3
mph
1015.3mb 62f 67f
5:06 2 3 mph 1015.3mb 62f 67f
5:00 2 5 mph 1015.3mb 62f 66f
4:54 6 7 mph 1015.2mb 62f 66f
4:48 7
mph
1015.2mb 62f 67f
4:42 7 8 mph 1015.2mb 62f 67f
4:36 7 8 mph 1015.2mb 62f 67f
4:30 5 6 mph 1015.1mb 62f 67f
4:24 2 3 mph 1015.1mb 62f 68f
4:18 3 5 mph 1015.1mb 62f 68f
4:12 1 5 mph 1015mb 62f 68f
4:06  -  2 mph 1015mb 62f 68f
4:00 1 3 mph 1015mb 62f 70f
3:54  -  2 mph 1014.9mb 62f 71f
3:48 1 2 mph 1014.8mb 62f 70f
3:42 1 2 mph 1015mb 62f 70f
3:36 2 3 mph 1014.9mb 62f 69f
3:30 2 5 mph 1014.8mb 62f 69f
3:24 5
mph
1014.7mb 62f 69f
3:18 1 2 mph 1014.6mb 62f 72f
3:12 1 3 mph 1014.6mb 62f 72f
3:06 2 3 mph 1014.6mb 62f 72f
3:00  -  2 mph 1014.5mb 62f 73f
2:54 2
mph
1014.5mb 62f 72f
2:48 2
mph
1014.6mb 62f 72f
2:42 2
mph
1014.6mb 62f 71f
2:36  -  1 mph 1014.5mb 62f 72f
2:30  -  1 mph 1014.5mb 62f 72f
2:24  -  1 mph 1014.5mb 62f 72f
2:18  -  2 mph 1014.4mb 62f 71f
2:12 2 3 mph 1014.4mb 62f 69f
2:06 1 3 mph 1014.4mb 62f 70f
2:00 1 2 mph 1014.5mb 62f 69f
1:54 2
mph
1014.5mb 62f 69f
1:48  -  5 mph 1014.5mb 62f 69f
1:42 2 5 mph 1014.5mb 62f 69f
1:36 3
mph
1014.6mb 62f 67f
1:30 2 3 mph 1014.6mb 62f 67f
1:24 2 3 mph 1014.5mb 62f 67f
1:18 3 5 mph 1014.5mb 62f 65f
1:12 6
mph
1014.3mb 62f 65f
1:06 1 6 mph 1014.3mb 62f 66f
1:00 3 5 mph 1014.5mb 62f 66f
12:54 3 6 mph 1014.5mb 62f 66f
12:48 2 3 mph 1014.6mb 62f 68f
12:42 1 5 mph 1014.9mb 62f 69f
12:36  -  2 mph 1014.9mb 62f 69f
12:30  -  2 mph 1014.9mb 62f 69f
12:24 1 3 mph 1015mb 62f 68f
12:18 2 3 mph 1015.1mb 62f 65f
12:12 1 6 mph 1015.3mb 62f 65f
12:06 3 5 mph 1015.7mb 62f 65f
12:00 3 6 mph 1015.6mb 62f 65f
11:54 5
mph
1015.8mb 62f 65f
11:48 3 5 mph 1016mb 62f 65f
11:42 5
mph
1016mb 62f 65f
11:36 2
mph
1015.9mb 62f 67f
11:30  -  2 mph 1016.1mb 62f 67f
11:24 2
mph
1016.3mb 62f 67f
11:18  -  1 mph 1016.4mb 62f 69f
11:12  -  2 mph 1016.6mb 62f 69f
11:06 2 3 mph 1016.7mb 62f 67f
11:00 2 3 mph 1016.8mb 62f 69f
10:54  -  mph 1016.9mb 62f 69f
10:48 2 5 mph 1016.9mb 62f 65f
10:42 3 6 mph 1017mb 62f 64f
10:36 6 7 mph 1017mb 62f 65f
10:30 2 5 mph 1017mb 62f 66f
10:24 2
mph
1017mb 62f 67f
10:18  -  2 mph 1017mb 62f 67f
10:12 1 3 mph 1017mb 62f 66f
10:06 5 6 mph 1017.1mb 62f 63f
10:00 3 6 mph 1017.1mb 62f 64f
9:54 3 5 mph 1017.1mb 62f 66f
9:48  -  1 mph 1017mb 62f 69f
9:42 2 3 mph 1017.1mb 62f 66f
9:36  -  3 mph 1017.1mb 62f 65f
9:30 2 3 mph 1017.1mb 62f 64f
9:24  -  2 mph 1017.1mb 62f 65f
9:18  -  1 mph 1017.1mb 62f 66f
9:12  -  3 mph 1017.1mb 62f 65f
9:06 3 5 mph 1017.1mb 62f 63f
9:00 3
mph
1017.1mb 62f 64f
8:54 3 6 mph 1017.2mb 62f 65f
8:48 6 7 mph 1017.2mb 62f 64f
8:42 3 5 mph 1017.2mb 61f 65f
8:36  -  3 mph 1017.1mb 61f 67f
8:30 5 7 mph 1017.1mb 61f 66f
8:24  -  2 mph 1017mb 61f 71f
8:18 2 3 mph 1017mb 61f 69f
8:12 3
mph
1016.9mb 61f 65f
8:06 1 2 mph 1017mb 61f 66f
8:00  -  2 mph 1016.9mb 61f 67f
7:54 1 5 mph 1016.8mb 61f 66f
7:48 5 6 mph 1016.8mb 61f 63f
7:42 6
mph
1016.8mb 61f 62f
7:36 3 5 mph 1016.8mb 61f 63f
7:30 1 2 mph 1016.8mb 61f 65f
7:24  -  2 mph 1016.8mb 61f 63f
7:18  -  3 mph 1016.7mb 61f 62f
7:12 2 3 mph 1016.7mb 61f 62f
7:06 2 5 mph 1016.7mb 61f 62f
7:00 2 5 mph 1016.6mb 61f 62f
6:54 1 5 mph 1016.6mb 61f 63f
6:48 2 5 mph 1016.5mb 61f 63f
6:42 2 3 mph 1016.5mb 61f 63f
6:36 5 6 mph 1016.3mb 61f 64f
6:30 2 3 mph 1016.2mb 61f 64f
6:24 2 3 mph 1016.2mb 61f 63f
6:18  -  2 mph 1016.2mb 61f 63f
6:12 2 6 mph 1016.2mb 61f 63f
6:06 3 6 mph 1016mb 61f 62f
6:00 3
mph
1016mb 61f 61f
5:54 2 6 mph 1015.9mb 61f 61f
5:48 5 6 mph 1015.9mb 61f 61f
5:42  -  1 mph 1015.8mb 61f 62f
5:36  -  1 mph 1015.8mb 61f 61f
5:30  -  1 mph 1015.8mb 61f 62f
5:24  -  2 mph 1015.8mb 61f 62f
5:18 1 2 mph 1015.8mb 61f 62f
5:12 2 3 mph 1015.9mb 61f 62f
5:06 1 2 mph 1015.9mb 61f 62f
5:00  -  1 mph 1015.9mb 61f 61f
4:54  -  1 mph 1015.9mb 61f 62f
4:48  -  1 mph 1015.8mb 61f 62f
4:42 1 3 mph 1015.9mb 61f 62f
4:36 2 3 mph 1015.9mb 61f 62f
4:30  -  1 mph 1015.9mb 61f 61f
4:24 2 3 mph 1016mb 61f 61f
4:18 3
mph
1015.9mb 61f 62f
4:12 2 3 mph 1015.9mb 61f 62f
4:06 3 6 mph 1015.9mb 61f 63f
4:00 5 6 mph 1015.8mb 61f 63f
3:54 2 6 mph 1015.7mb 61f 63f
3:48  -  2 mph 1015.7mb 61f 63f
3:42  -  2 mph 1015.7mb 61f 62f
3:36 2 3 mph 1015.8mb 61f 62f
3:30 1 3 mph 1015.9mb 61f 62f
3:24  -  2 mph 1016mb 61f 62f
3:18 2 6 mph 1016mb 61f 63f
3:12 6 8 mph 1016mb 61f 63f
3:06 1 2 mph 1016mb 61f 67f
3:00 2
mph
1016mb 61f -
2:54 1 3 mph 1016mb 61f -
2:48 3
mph
1016mb 61f 65f
2:42 2 3 mph 1016mb 61f 65f
2:36 3
mph
1016.1mb 61f 65f
2:30 1 2 mph 1016.1mb 61f 63f
2:24 2
mph
1016.1mb 61f 64f
2:18 1 3 mph 1016.1mb 61f 64f
2:12 1 2 mph 1016.1mb 61f 64f
2:06  -  3 mph 1016.3mb 61f 63f
2:00  -  3 mph 1016.3mb 61f 64f
1:54 2 3 mph 1016.2mb 61f 65f
1:48 3 5 mph 1016.1mb 61f 64f
1:42 1 2 mph 1016mb 61f 64f
1:36 1 3 mph 1016mb 61f 64f
1:30  -  3 mph 1016mb 61f 65f
1:24 2
mph
1015.9mb 61f 66f
1:18 1 2 mph 1015.9mb 61f 66f
1:12 3 6 mph 1015.8mb 61f 65f
1:06 5 6 mph 1015.8mb 61f 65f
1:00 2 3 mph 1015.8mb 61f 64f
12:54 1 5 mph 1015.9mb 61f 65f
12:48 5 6 mph 1015.9mb 61f 66f
12:42 5 6 mph 1015.9mb 61f 66f
12:36 3 6 mph 1016mb 61f 67f
12:30 5 6 mph 1016mb 61f 69f
12:24 3 7 mph 1016.1mb 61f 69f
12:18 7 9 mph 1016.1mb 61f 68f
12:12 7 8 mph 1016.2mb 61f 67f
12:06 5 9 mph 1016.2mb 61f 74f
12:00 7 11 mph 1016.2mb 61f 74f
sam. 01/24 11:54 9 14 mph 1016.3mb 62f 74f
11:48 13 18 mph 1016.3mb 62f 74f
11:42 15 18 mph 1016.2mb 61f 74f
11:36 17 21 mph 1016.1mb 61f 74f
11:30 14 16 mph 1016.2mb 61f 73f
11:24 8 11 mph 1016.3mb 61f 72f
11:18 7 10 mph 1016.3mb 62f 72f
11:12 7 10 mph 1016.4mb 62f 71f
11:06 6 9 mph 1016.6mb 61f 69f
11:00 7 8 mph 1016.5mb 62f 70f
10:54 6 9 mph 1016.6mb 62f 71f
10:48 9 11 mph 1016.8mb 62f -
10:42 8 10 mph 1016.9mb 61f -
10:36 8 10 mph 1017mb 62f -
10:30 9 10 mph 1017mb 61f 69f
10:24 8 9 mph 1017mb 62f 69f
10:18 10
mph
1017mb 61f 68f
10:12 10 11 mph 1017mb 62f 68f
10:06 9 10 mph 1017.1mb 61f 68f
10:00 3 6 mph 1017.1mb 61f 67f
9:54 2
mph
1017.1mb 62f 67f
9:48 2 5 mph 1017.1mb 62f 66f
9:42 3 5 mph 1017.1mb 62f 66f
9:36 2 3 mph 1017mb 62f 66f
9:30 2
mph
1017mb 62f 65f
9:24 2 3 mph 1016.9mb 62f 66f
9:18  -  2 mph 1016.8mb 62f 66f
9:12 3 5 mph 1016.7mb 62f 65f
9:06 3 6 mph 1016.7mb 62f 65f
9:00 5 6 mph 1016.7mb 62f 65f
8:54 1 5 mph 1016.5mb 62f 67f
8:48 5 6 mph 1016.4mb 62f 72f
8:42 6 7 mph 1016.3mb 62f 72f
8:36 7 8 mph 1016.2mb 62f 72f
8:30 8
mph
1016.2mb 62f 71f
8:24 7 8 mph 1016.1mb 62f 71f
8:18 7 8 mph 1016.1mb 62f 70f
8:12 3 6 mph 1016mb 62f 71f
8:06 5 8 mph 1015.9mb 62f 73f
8:00 7 9 mph 1015.8mb 62f 73f
7:54 8 10 mph 1015.7mb 62f 73f
7:48 8 10 mph 1015.6mb 62f 73f
7:42 7 8 mph 1015.6mb 62f 73f
7:36 6 7 mph 1015.5mb 62f 73f
7:30 5 6 mph 1015.5mb 62f 73f
7:24 6 8 mph 1015.5mb 62f 74f
7:18 6 10 mph 1015.6mb 62f 74f
7:12 7 9 mph 1015.5mb 62f 73f
7:06 5 7 mph 1015.5mb 62f 74f
7:00 6 8 mph 1015.5mb 62f 74f
6:54 6 8 mph 1015.5mb 62f 73f
6:48 8 9 mph 1015.4mb 62f 73f
6:42 9
mph
1015.4mb 62f 73f
6:36 6 8 mph 1015.4mb 62f 73f
6:30 6 9 mph 1015.4mb 62f 73f
6:24 7 8 mph 1015.3mb 62f 73f
6:18 5 8 mph 1015.2mb 62f 73f
6:12 7 10 mph 1015.2mb 62f 74f
6:06 9 13 mph 1015.1mb 62f 75f
6:00 6 8 mph 1015.1mb 62f 75f
5:54 6 9 mph 1015mb 62f 75f
5:48 3 7 mph 1014.9mb 62f 75f
5:42 3 6 mph 1014.9mb 62f 75f
5:36 7 9 mph 1014.8mb 62f 76f
5:30 7 10 mph 1014.8mb 62f 76f
5:24 7 13 mph 1014.7mb 62f 76f
5:18 9 14 mph 1014.6mb 62f 77f
5:12 10 13 mph 1014.6mb 62f 77f
5:06 8 17 mph 1014.6mb 62f 77f
5:00 10 13 mph 1014.5mb 62f 78f
4:54 9 13 mph 1014.5mb 62f 78f
4:48 6 13 mph 1014.5mb 62f 78f
4:42 8 13 mph 1014.4mb 62f 78f
4:36 8 15 mph 1014.4mb 62f 79f
4:30 9 15 mph 1014.3mb 62f 79f
4:24 10 14 mph 1014.2mb 62f 79f
4:18 8 14 mph 1014.3mb 62f 79f
4:12 11 17 mph 1014.2mb 62f 79f
4:06 14 17 mph 1014.1mb 62f 79f
4:00 11 18 mph 1014.2mb 62f 80f
3:54 10 17 mph 1014.1mb 62f 80f
3:48 11 17 mph 1014.1mb 62f 80f
3:42 11 16 mph 1014.1mb 62f 80f
3:36 13 18 mph 1014.2mb 62f 80f
3:30 13 21 mph 1014.2mb 62f 80f
3:24 14 17 mph 1014.2mb 62f 80f
3:18 14 18 mph 1014.2mb 62f 80f
3:12 10 15 mph 1014.2mb 62f 80f
3:06 10 15 mph 1014.2mb 62f 81f
3:00 11 16 mph 1014.1mb 62f 80f
2:54 14 21 mph 1013.9mb 62f 80f
2:48 15 18 mph 1014.1mb 62f 80f
2:42 7 11 mph 1014.1mb 62f 80f
2:36 8 17 mph 1014.2mb 62f 80f
2:30 13 17 mph 1014.2mb 62f 80f
2:24 14 18 mph 1014.1mb 62f 80f
2:18 13 20 mph 1014.2mb 62f 80f
2:12 10 14 mph 1014.2mb 62f 80f
2:06 8 17 mph 1014.2mb 62f 79f
2:00 13 17 mph 1014.2mb 62f 79f
1:54 11 16 mph 1014.1mb 62f 79f
1:48 8 11 mph 1014.1mb 62f 79f
1:42 8 16 mph 1014.2mb 62f 79f
1:36 14 18 mph 1014.3mb 62f 79f
1:30 13 18 mph 1014.4mb 62f 79f
1:24 10 15 mph 1014.6mb 62f 79f
1:18 10 18 mph 1014.6mb 62f 79f
1:12 10 17 mph 1014.6mb 62f 79f
1:06 11 17 mph 1014.7mb 62f 78f
1:00 13 24 mph 1014.8mb 62f 78f
12:54 21 24 mph 1014.8mb 62f 78f
12:48 9 17 mph 1015mb 62f 78f
12:42 15 23 mph 1015.1mb 62f 78f
12:36 17 28 mph 1015.2mb 62f 77f
12:30 14 28 mph 1015.2mb 62f 78f
12:24 18 26 mph 1015.3mb 62f 77f
12:18 16 29 mph 1015.5mb 62f 77f
12:12 21 26 mph 1015.4mb 62f 77f
12:06 13 23 mph 1015.6mb 62f 77f
12:00 11 20 mph 1015.7mb 62f 77f
11:54 15 23 mph 1015.9mb 62f 77f
11:48 14 25 mph 1015.9mb 62f 77f
11:42 13 23 mph 1016mb 62f 77f
11:36 11 17 mph 1016.1mb 62f 77f
11:30 11 23 mph 1016.1mb 62f 77f
11:24 9 16 mph 1016mb 62f 77f
11:18 8 18 mph 1016.2mb 62f 76f
11:12 10 20 mph 1016.3mb 62f 76f
11:06 13 17 mph 1016.4mb 62f 76f
11:00 11 17 mph 1016.5mb 62f 76f
10:54 15 23 mph 1016.7mb 62f 76f
10:48 14 17 mph 1016.8mb 62f 76f
10:42 14 22 mph 1017mb 62f 76f
10:36 13 17 mph 1016.9mb 62f 76f
10:30 11 17 mph 1017.1mb 62f 76f
10:24 11 21 mph 1017.3mb 62f 75f
10:18 14 20 mph 1017.3mb 62f 75f
10:12 15 21 mph 1017.3mb 62f 75f
10:06 15 18 mph 1017.4mb 62f 74f
10:00 10 15 mph 1017.5mb 62f 73f
9:54 5 9 mph 1017.8mb 61f 68f
9:48 2 6 mph 1017.9mb 62f 65f
9:42 2 6 mph 1018mb 62f 65f
9:36  -  2 mph 1018mb 62f 67f
9:30  -  2 mph 1018.1mb 62f 66f
9:24 1 5 mph 1018.1mb 62f 63f
9:18 3 6 mph 1018.1mb 62f 62f
9:12 2 6 mph 1018.1mb 61f 63f
9:06 2 5 mph 1018mb 61f 63f
9:00 2 3 mph 1018.1mb 61f 65f
8:54 2 5 mph 1018.1mb 61f 64f
8:48 2 6 mph 1018.1mb 61f 62f
8:42 5 8 mph 1018.1mb 61f 61f
8:36 7 11 mph 1018.1mb 61f 61f
8:30 6 13 mph 1018.1mb 61f 64f
8:24 6
mph
1018.1mb 61f 63f
8:18 5
mph
1018.2mb 61f 62f
8:12 2 5 mph 1018.3mb 61f 62f
8:06 5 6 mph 1018.2mb 61f 62f
8:00 3 5 mph 1018mb 61f 63f
7:54 5 6 mph 1018mb 61f 62f
7:48 6
mph
1017.9mb 61f 60f
7:42 2 5 mph 1018mb 61f 60f
7:36 3
mph
1018mb 61f 61f
7:30 1 2 mph 1018mb 61f 61f
7:24  -  1 mph 1017.9mb 61f 59f
7:18  -  1 mph 1017.8mb 61f 58f
7:12 1 2 mph 1017.6mb 61f 58f
7:06  -  2 mph 1017.5mb 61f 58f
7:00 2
mph
1017.5mb 61f 58f
6:54  -  3 mph 1017.4mb 61f 58f
6:48 3 6 mph 1017.2mb 61f 59f
6:42 5 7 mph 1017.1mb 61f 58f
6:36 1 5 mph 1016.9mb 61f 58f
6:30  -  3 mph 1016.8mb 61f 61f
6:24 3 5 mph 1016.6mb 61f 60f
6:18 3 5 mph 1016.7mb 61f 60f
6:12 3 5 mph 1016.7mb 61f 59f
6:06 3 5 mph 1016.8mb 61f 58f
6:00  -  1 mph 1016.9mb 61f 58f
5:54  -  2 mph 1016.9mb 61f 58f
5:48 2 3 mph 1016.9mb 61f 58f
5:42 2 3 mph 1016.9mb 61f 59f
5:36 3 5 mph 1016.9mb 61f 59f
5:30 5
mph
1016.9mb 61f 58f
5:24 1 2 mph 1017mb 61f 59f
5:18 1 5 mph 1017mb 61f 59f
5:12 5
mph
1016.9mb 61f 59f
5:06 2 3 mph 1016.9mb 61f 58f
5:00 2 3 mph 1016.8mb 61f 58f
4:54 1 2 mph 1016.8mb 62f 58f
4:48 2 5 mph 1016.9mb 62f 59f
4:42 1 5 mph 1016.9mb 61f 58f
4:36 2 5 mph 1017mb 61f 59f
4:30 3 5 mph 1016.9mb 61f 58f
4:24  -  2 mph 1016.9mb 61f 58f
4:18 2 5 mph 1017mb 61f 60f
4:12 5
mph
1017mb 61f 60f
4:06 2 3 mph 1017mb 61f 58f
4:00  -  3 mph 1017mb 61f 57f
3:54 3 6 mph 1017.2mb 61f 57f
3:48 5 6 mph 1017.2mb 61f 55f
3:42 3 6 mph 1017.2mb 61f 57f
3:36 5 6 mph 1017.2mb 61f 56f
3:30 3
mph
1017.3mb 61f 57f
3:24 3 5 mph 1017.4mb 61f 58f
3:18 3
mph
1017.5mb 61f 58f
3:12 3
mph
1017.6mb 61f 58f
3:06 1 5 mph 1017.7mb 62f 58f
3:00 3
mph
1017.8mb 62f 58f
2:54 2 5 mph 1017.9mb 62f 60f
2:48 3
mph
- 62f -
2:42 1 2 mph - 62f -
2:36  -  1 mph - 61f -
2:30  -  2 mph 1017.9mb 61f 60f
2:24 2 5 mph 1017.9mb 61f 60f
2:18 2 6 mph 1018mb 61f 60f
2:12 6 9 mph 1017.9mb 61f 61f
2:06 5 7 mph 1017.8mb 61f 64f
2:00 6 9 mph 1017.8mb 62f 64f
1:54 8 11 mph 1017.8mb 62f 65f
1:48 10 15 mph 1017.8mb 62f 66f
1:42 14 16 mph 1017.8mb 62f 65f
1:36 13 15 mph 1017.9mb 62f 65f
1:30 10 11 mph 1018.1mb 62f 65f
1:24 10 11 mph 1018.3mb 62f 64f
1:18 2 6 mph 1018.4mb 62f 61f
1:12  -  3 mph 1018.5mb 62f 62f
1:06 3 9 mph 1018.6mb 62f 62f
1:00 2 3 mph 1018.7mb 62f 60f
12:54 3 6 mph 1018.7mb 62f 59f
12:48 5 6 mph 1018.9mb 62f 59f
12:42 2 3 mph 1019.1mb 62f 58f
12:36 2 3 mph 1019.3mb 62f 59f
12:30 3 5 mph 1019.4mb 62f 58f
12:24 2 5 mph 1019.5mb 62f 59f
12:18 3 5 mph 1019.5mb 62f 59f
12:12 1 2 mph 1019.6mb 62f 59f
12:06 3 6 mph 1019.4mb 62f 59f
12:00 5 7 mph 1019.4mb 62f 59f
ven. 01/23 11:54 6 7 mph 1019.4mb 62f 58f
11:48  -  6 mph 1019.4mb 62f 61f
11:42 6 9 mph 1019.5mb 62f 61f
11:36 8 10 mph 1019.6mb 62f 61f
11:30 7 8 mph 1019.7mb 62f 61f
11:24 5 7 mph 1019.6mb 62f 62f
11:18 5 7 mph 1019.7mb 62f 61f
11:12 2 5 mph 1019.8mb 62f 60f
11:06 3 6 mph 1019.9mb 62f 59f
11:00 5
mph
1020mb 62f 59f
10:54 2 3 mph 1020.2mb 62f 60f
10:48 2 5 mph 1020.2mb 62f 60f
10:42 3 5 mph 1020.3mb 62f 60f
10:36 5 7 mph 1020.3mb 62f 60f
10:30 6 8 mph 1020.2mb 62f 60f
10:24 6 7 mph 1020.3mb 62f 61f
10:18 3 5 mph 1020.3mb 62f 60f
10:12  -  2 mph 1020.3mb 62f 59f
10:06  -  1 mph 1020.3mb 62f 59f
10:00  -  2 mph 1020.4mb 62f 60f
9:54 1 2 mph 1020.4mb 62f 60f
9:48 1 2 mph 1020.4mb 62f 60f
9:42 1 2 mph 1020.5mb 62f 59f
9:36  -  1 mph 1020.5mb 62f 58f
9:30  -  1 mph 1020.5mb 62f 59f
9:24  -  1 mph 1020.5mb 62f 59f
9:18 1 2 mph 1020.6mb 62f 60f
9:12  -  2 mph 1020.5mb 62f 60f
9:06  -  2 mph 1020.4mb 62f 60f
9:00  -  1 mph 1020.5mb 62f 60f
8:54  -  1 mph 1020.5mb 62f 60f
8:48 1 2 mph 1020.5mb 62f 60f
8:42  -  1 mph 1020.5mb 62f 60f
8:36  -  2 mph 1020.5mb 62f 61f
8:30  -  1 mph 1020.5mb 62f 61f
8:24  -  2 mph 1020.6mb 62f 61f
8:18 1 5 mph 1020.6mb 62f 61f
8:12 3 5 mph 1020.7mb 62f 62f
8:06 2 5 mph 1020.7mb 62f 62f
8:00 2 3 mph 1020.7mb 62f 61f
7:54 1 2 mph 1020.7mb 62f 60f
7:48  -  1 mph 1020.7mb 62f 61f
7:42 1 2 mph 1020.6mb 63f 62f
7:36 1
mph
1020.6mb 63f 62f
7:30  -  2 mph 1020.7mb 63f 61f
7:24 1 2 mph 1020.7mb 63f 61f
7:18  -  mph 1020.8mb 62f 60f
7:12  -  mph 1020.9mb 63f 61f
7:06  -  mph 1020.8mb 63f 62f
7:00 3 6 mph 1020.8mb - 63f
6:54 6 7 mph 1020.8mb - 63f
6:48 5
mph
1020.8mb 63f 62f
6:42  -  2 mph 1020.7mb 63f 61f
6:36 2 3 mph 1020.8mb 63f 62f
6:30 3 5 mph 1020.8mb 63f 62f
6:24 5 6 mph 1020.8mb 63f 62f
6:18 6
mph
1020.8mb 63f 62f
6:12 6 7 mph 1020.7mb 63f 62f
6:06 6
mph
1020.6mb 63f 62f
6:00 5
mph
1020.5mb 63f 62f
5:54 1 2 mph 1020.5mb 63f 61f
5:48 2 3 mph 1020.5mb 63f -
5:42 3
mph
1020.5mb 63f -
5:36 3
mph
1020.4mb 63f -
5:30 3 5 mph 1020.3mb 63f 62f
5:24 5
mph
1020.3mb 63f 62f
5:18 5
mph
1020.4mb 63f 62f
5:12 5 6 mph 1020.3mb 63f 62f
5:06 5
mph
1020.2mb 63f 62f
5:00 3
mph
1020.1mb 63f 63f
4:54 3
mph
1020.1mb 63f 64f
4:48 2
mph
1020.1mb 63f 64f
4:42 1 2 mph 1020mb 63f 65f
4:36 1
mph
1020mb 63f 65f
4:30 1 2 mph 1020.1mb 63f 65f
4:24 2
mph
1020mb 63f 65f
4:18 2 3 mph 1019.9mb 63f 65f
4:12 2 5 mph 1020mb 63f 64f
4:06 5 6 mph 1020mb 63f 64f
4:00 3 5 mph 1020.1mb 63f 65f
3:54 3 5 mph 1020.1mb 63f 65f
3:48 3 5 mph 1020.1mb 63f 65f
3:42 2
mph
1020.1mb 63f 66f
3:36 2 3 mph 1020mb 63f 66f
3:30 2 3 mph 1020mb 63f 65f
3:24 2
mph
1020.1mb 63f 66f
3:18 2 3 mph 1020.1mb 63f 65f
3:12 3 5 mph 1020.2mb 63f 64f
3:06 5
mph
1020.2mb 63f 64f
3:00 5 6 mph 1020.1mb 63f 64f
2:54 3 7 mph 1020.3mb 63f 65f
2:48 7
mph
1020.5mb 63f 65f
2:42 5 6 mph 1020.5mb 63f 66f
2:36 3
mph
1020.6mb 63f 66f
2:30 2 3 mph 1020.6mb 63f 66f
2:24 3
mph
1020.6mb 63f 66f
2:18 2 3 mph 1020.7mb 63f 68f
2:12 2 3 mph 1020.7mb 63f 66f
2:06 2 3 mph 1020.7mb 62f 65f
2:00 2 3 mph 1020.7mb 62f 65f
1:54 3
mph
1020.8mb 62f 65f
1:48 1 2 mph 1020.8mb 62f 65f
1:42 2 3 mph 1020.9mb 62f 65f
1:36 2 3 mph 1020.9mb 62f 65f
1:30 2 3 mph 1020.9mb 62f 65f
1:24 2 3 mph 1021.1mb 62f 64f
1:18 3
mph
1021.2mb 62f 64f
1:12 2 3 mph 1021.2mb 62f 64f
1:06 2 3 mph 1021.3mb 62f 64f
1:00 2
mph
1021.3mb 62f 65f
12:54 2
mph
1021.4mb 62f 65f
12:48 1 2 mph 1021.5mb 62f 65f
12:42 1 2 mph 1021.6mb 62f 65f
12:36 1 2 mph 1021.7mb 62f 64f
12:30 1
mph
1021.9mb 62f 66f
12:24  -  2 mph 1022.1mb 62f 66f
12:18 1 3 mph 1022.2mb 62f 66f
12:12 1 2 mph 1022.4mb 62f 66f
12:06 1 3 mph 1022.5mb 62f 66f
12:00 2 3 mph 1022.6mb 62f 64f
11:54 3 5 mph 1022.7mb 62f 63f
11:48 3 5 mph 1022.8mb 62f 64f
11:42 5
mph
1023mb 62f 63f
11:36 3 5 mph 1023.1mb 62f 63f
11:30 3 5 mph 1023.3mb 62f 62f
11:24 3 5 mph 1023.4mb 62f 62f
11:18 3
mph
1023.5mb 62f 63f
11:12 2 3 mph 1023.4mb 62f 63f
11:06 3
mph
1023.5mb 62f 63f
11:00 2 3 mph 1023.6mb 62f 63f
10:54 2
mph
1023.6mb 62f 63f
10:48 2
mph
1023.7mb 62f 64f
10:42 2
mph
1023.8mb 62f 63f
10:36 1 2 mph 1023.8mb 62f 63f
10:30 2 3 mph 1023.8mb 62f 62f
10:24 2 5 mph 1024mb 62f 62f
10:18 2 3 mph 1024mb 62f 62f
10:12 2 3 mph 1024mb 62f 62f
10:06 2 3 mph 1023.9mb 62f 62f
10:00 3
mph
1024mb 62f 62f
9:54 2 3 mph 1023.9mb 62f 62f
9:48 2 3 mph 1023.9mb 62f 62f
9:42 3 5 mph 1023.9mb 62f 61f
9:36 5 6 mph 1023.9mb 62f 61f
9:30 6
mph
1023.9mb 62f 61f
9:24 5
mph
1023.9mb 62f 61f
9:18 3
mph
1023.8mb 62f 62f
9:12 2 5 mph 1023.8mb 62f 62f
9:06 2 3 mph 1023.8mb 62f 64f
9:00  -  1 mph 1023.8mb 62f 68f
8:54  -  mph 1023.8mb 62f 68f
8:48  -  2 mph 1023.9mb 61f 65f
8:42 2
mph
1023.8mb 61f 65f
8:36 1 5 mph 1023.8mb 61f 65f
8:30 3 5 mph 1023.8mb 61f 63f
8:24 3 5 mph 1023.7mb 61f 61f
8:18 3
mph
1023.8mb 61f 62f
8:12 2 3 mph 1023.8mb 61f 64f
8:06 1 3 mph 1023.7mb 61f 65f
8:00 2 5 mph - - 63f
7:54 3 5 mph - - 62f
7:48 5 6 mph 1023.6mb 61f 60f
7:42 3 5 mph 1023.6mb 61f 59f
7:36 3 5 mph 1023.6mb 61f 59f
7:30 1 3 mph 1023.5mb 61f 60f
7:24  -  2 mph 1023.5mb 61f 59f
7:18 2 3 mph 1023.5mb 61f 59f
7:12 2
mph
1023.6mb 61f 58f
7:06  -  3 mph 1023.6mb 61f 58f
7:00 3
mph
1023.6mb 61f 57f
6:54 2
mph
1023.7mb 61f 57f
6:48  -  mph - - 57f
6:42  -  mph - - 56f
6:36  -  mph - - 57f
6:30 3 5 mph 1023.5mb 62f 58f
6:24  -  3 mph 1023.5mb 62f 60f
6:18 2 5 mph 1023.4mb 62f 59f
6:12 5 6 mph 1023.4mb 62f 59f
6:06 1 2 mph 1023.3mb 62f 58f
6:00 3
mph
1023.2mb 62f 58f
5:54 2
mph
1023.1mb 62f 58f
5:48  -  2 mph 1023.1mb 62f 58f
5:42 2
mph
1023.1mb 62f 59f
5:36 2 3 mph 1023.1mb 62f 58f
5:30 2 3 mph 1023.1mb 62f 57f
5:24 2 3 mph 1023.1mb 62f 58f
5:18 2
mph
1023mb 62f 58f
5:12 2 5 mph 1022.9mb 62f 59f
5:06 5
mph
1022.9mb 62f 59f
5:00 5
mph
1022.9mb 62f 59f
4:54 2
mph
1022.8mb 62f 59f
4:48 2
mph
1022.8mb 62f 58f
4:42  -  3 mph 1022.9mb 62f 60f
4:36 2 3 mph 1022.9mb 62f 59f
4:30 2 3 mph 1022.9mb 62f 60f
4:24 2 3 mph 1022.9mb 62f 59f
4:18 1 5 mph 1022.9mb 62f 58f
4:12 3 5 mph 1022.9mb 61f 60f
4:06 1 5 mph 1022.8mb 62f 61f
4:00 2 3 mph 1022.8mb 62f 60f
3:54 2 3 mph 1022.8mb 61f 60f
3:48  -  3 mph 1022.8mb 61f 59f
3:42 1 2 mph 1022.8mb 61f 59f
3:36 1 5 mph 1022.6mb 61f 59f
3:30 5 7 mph 1022.7mb 61f 60f
3:24 6 7 mph 1022.9mb 61f 59f